sensor_id;sensor_type;location;lat;lon;timestamp;temperature;humidity
3701;DHT22;1866;48.374;10.766;2023-04-01T00:00:59;7.60;1.00
3701;DHT22;1866;48.374;10.766;2023-04-01T00:03:28;7.60;1.00
3701;DHT22;1866;48.374;10.766;2023-04-01T00:05:57;7.70;1.00
3701;DHT22;1866;48.374;10.766;2023-04-01T00:08:26;7.60;1.00
3701;DHT22;1866;48.374;10.766;2023-04-01T00:10:53;7.70;1.00
3701;DHT22;1866;48.374;10.766;2023-04-01T00:13:21;7.70;1.00
3701;DHT22;1866;48.374;10.766;2023-04-01T00:15:48;7.60;1.00
3701;DHT22;1866;48.374;10.766;2023-04-01T00:18:15;7.70;1.00
3701;DHT22;1866;48.374;10.766;2023-04-01T00:20:44;7.60;1.00
3701;DHT22;1866;48.374;10.766;2023-04-01T00:23:11;7.70;1.00
3701;DHT22;1866;48.374;10.766;2023-04-01T00:25:39;7.70;1.00
3701;DHT22;1866;48.374;10.766;2023-04-01T00:28:06;7.70;1.00
3701;DHT22;1866;48.374;10.766;2023-04-01T00:30:35;7.70;1.00
3701;DHT22;1866;48.374;10.766;2023-04-01T00:33:02;7.70;1.00
3701;DHT22;1866;48.374;10.766;2023-04-01T00:35:29;7.70;1.00
3701;DHT22;1866;48.374;10.766;2023-04-01T00:37:57;7.80;1.00
3701;DHT22;1866;48.374;10.766;2023-04-01T00:40:27;7.70;1.00
3701;DHT22;1866;48.374;10.766;2023-04-01T00:42:56;7.70;1.00
3701;DHT22;1866;48.374;10.766;2023-04-01T00:45:30;7.70;1.00
3701;DHT22;1866;48.374;10.766;2023-04-01T00:47:59;7.70;1.00
3701;DHT22;1866;48.374;10.766;2023-04-01T00:50:29;7.60;1.00
3701;DHT22;1866;48.374;10.766;2023-04-01T00:52:57;7.60;1.00
3701;DHT22;1866;48.374;10.766;2023-04-01T00:55:26;7.70;1.00
3701;DHT22;1866;48.374;10.766;2023-04-01T00:57:56;7.70;1.00
3701;DHT22;1866;48.374;10.766;2023-04-01T01:00:23;7.70;1.00
3701;DHT22;1866;48.374;10.766;2023-04-01T01:02:52;7.70;1.00
3701;DHT22;1866;48.374;10.766;2023-04-01T01:05:26;7.70;1.00
3701;DHT22;1866;48.374;10.766;2023-04-01T01:08:01;7.70;1.00
3701;DHT22;1866;48.374;10.766;2023-04-01T01:10:31;7.70;1.00
3701;DHT22;1866;48.374;10.766;2023-04-01T01:13:04;7.70;1.00
3701;DHT22;1866;48.374;10.766;2023-04-01T01:15:37;7.70;1.00
3701;DHT22;1866;48.374;10.766;2023-04-01T01:18:15;7.80;1.00
3701;DHT22;1866;48.374;10.766;2023-04-01T01:26:59;7.60;1.00
3701;DHT22;1866;48.374;10.766;2023-04-01T01:29:54;7.60;1.00
3701;DHT22;1866;48.374;10.766;2023-04-01T01:32:43;7.50;1.00
3701;DHT22;1866;48.374;10.766;2023-04-01T01:35:21;7.50;1.00
3701;DHT22;1866;48.374;10.766;2023-04-01T01:37:52;7.50;1.00
3701;DHT22;1866;48.374;10.766;2023-04-01T01:40:20;7.50;1.00
3701;DHT22;1866;48.374;10.766;2023-04-01T01:42:51;7.50;1.00
3701;DHT22;1866;48.374;10.766;2023-04-01T01:45:21;7.40;1.00
3701;DHT22;1866;48.374;10.766;2023-04-01T01:47:50;7.40;1.00
3701;DHT22;1866;48.374;10.766;2023-04-01T01:50:19;7.30;1.00
3701;DHT22;1866;48.374;10.766;2023-04-01T01:52:48;7.30;1.00
3701;DHT22;1866;48.374;10.766;2023-04-01T01:55:27;7.30;1.00
3701;DHT22;1866;48.374;10.766;2023-04-01T01:57:56;7.30;1.00
3701;DHT22;1866;48.374;10.766;2023-04-01T02:00:24;7.20;1.00
3701;DHT22;1866;48.374;10.766;2023-04-01T02:02:53;7.10;1.00
3701;DHT22;1866;48.374;10.766;2023-04-01T02:05:24;7.20;1.00
3701;DHT22;1866;48.374;10.766;2023-04-01T02:07:57;7.10;1.00
3701;DHT22;1866;48.374;10.766;2023-04-01T02:10:28;7.10;1.00
3701;DHT22;1866;48.374;10.766;2023-04-01T02:12:59;7.10;1.00
3701;DHT22;1866;48.374;10.766;2023-04-01T02:15:30;7.10;1.00
3701;DHT22;1866;48.374;10.766;2023-04-01T02:17:58;7.10;1.00
3701;DHT22;1866;48.374;10.766;2023-04-01T02:20:27;7.10;1.00
3701;DHT22;1866;48.374;10.766;2023-04-01T02:22:57;7.10;1.00
3701;DHT22;1866;48.374;10.766;2023-04-01T02:25:27;7.10;1.00
3701;DHT22;1866;48.374;10.766;2023-04-01T02:27:55;7.00;1.00
3701;DHT22;1866;48.374;10.766;2023-04-01T02:30:23;7.00;1.00
3701;DHT22;1866;48.374;10.766;2023-04-01T02:32:52;6.90;1.00
3701;DHT22;1866;48.374;10.766;2023-04-01T02:35:20;6.90;1.00
3701;DHT22;1866;48.374;10.766;2023-04-01T02:37:49;6.90;1.00
3701;DHT22;1866;48.374;10.766;2023-04-01T02:40:17;6.90;1.00
3701;DHT22;1866;48.374;10.766;2023-04-01T02:42:45;6.80;1.00
3701;DHT22;1866;48.374;10.766;2023-04-01T02:45:14;6.70;1.00
3701;DHT22;1866;48.374;10.766;2023-04-01T02:47:41;6.70;1.00
3701;DHT22;1866;48.374;10.766;2023-04-01T02:50:08;6.80;1.00
3701;DHT22;1866;48.374;10.766;2023-04-01T02:52:35;6.70;1.00
3701;DHT22;1866;48.374;10.766;2023-04-01T02:55:05;6.60;1.00
3701;DHT22;1866;48.374;10.766;2023-04-01T02:57:31;6.60;1.00
3701;DHT22;1866;48.374;10.766;2023-04-01T02:59:58;6.70;1.00
3701;DHT22;1866;48.374;10.766;2023-04-01T03:02:25;6.60;1.00
3701;DHT22;1866;48.374;10.766;2023-04-01T03:04:52;6.60;1.00
3701;DHT22;1866;48.374;10.766;2023-04-01T03:07:19;6.60;1.00
3701;DHT22;1866;48.374;10.766;2023-04-01T03:09:46;6.60;1.00
3701;DHT22;1866;48.374;10.766;2023-04-01T03:12:14;6.60;1.00
3701;DHT22;1866;48.374;10.766;2023-04-01T03:14:41;6.70;1.00
3701;DHT22;1866;48.374;10.766;2023-04-01T03:17:07;6.70;1.00
3701;DHT22;1866;48.374;10.766;2023-04-01T03:19:35;6.80;1.00
3701;DHT22;1866;48.374;10.766;2023-04-01T03:22:02;6.70;1.00
3701;DHT22;1866;48.374;10.766;2023-04-01T03:24:29;6.80;1.00
3701;DHT22;1866;48.374;10.766;2023-04-01T03:26:56;6.80;1.00
3701;DHT22;1866;48.374;10.766;2023-04-01T03:29:24;6.80;1.00
3701;DHT22;1866;48.374;10.766;2023-04-01T03:31:50;6.80;1.00
3701;DHT22;1866;48.374;10.766;2023-04-01T03:34:17;6.80;1.00
3701;DHT22;1866;48.374;10.766;2023-04-01T03:36:44;6.80;1.00
3701;DHT22;1866;48.374;10.766;2023-04-01T03:39:11;6.70;1.00
3701;DHT22;1866;48.374;10.766;2023-04-01T03:41:38;6.70;1.00
3701;DHT22;1866;48.374;10.766;2023-04-01T03:44:05;6.70;1.00
3701;DHT22;1866;48.374;10.766;2023-04-01T03:46:34;6.80;1.00
3701;DHT22;1866;48.374;10.766;2023-04-01T03:49:01;6.80;1.00
3701;DHT22;1866;48.374;10.766;2023-04-01T03:51:28;6.80;1.00
3701;DHT22;1866;48.374;10.766;2023-04-01T03:53:54;6.80;1.00
3701;DHT22;1866;48.374;10.766;2023-04-01T03:56:21;6.80;1.00
3701;DHT22;1866;48.374;10.766;2023-04-01T03:58:49;6.80;1.00
3701;DHT22;1866;48.374;10.766;2023-04-01T04:01:17;6.80;1.00
3701;DHT22;1866;48.374;10.766;2023-04-01T04:03:47;6.80;1.00
3701;DHT22;1866;48.374;10.766;2023-04-01T04:06:16;6.80;1.00
3701;DHT22;1866;48.374;10.766;2023-04-01T04:08:43;6.90;1.00
3701;DHT22;1866;48.374;10.766;2023-04-01T04:11:11;6.80;1.00
3701;DHT22;1866;48.374;10.766;2023-04-01T04:13:39;6.80;1.00
3701;DHT22;1866;48.374;10.766;2023-04-01T04:16:06;6.80;1.00
3701;DHT22;1866;48.374;10.766;2023-04-01T04:18:33;6.80;1.00
3701;DHT22;1866;48.374;10.766;2023-04-01T04:21:02;6.80;1.00
3701;DHT22;1866;48.374;10.766;2023-04-01T04:23:29;6.70;1.00
3701;DHT22;1866;48.374;10.766;2023-04-01T04:26:00;6.70;1.00
3701;DHT22;1866;48.374;10.766;2023-04-01T04:28:28;6.60;1.00
3701;DHT22;1866;48.374;10.766;2023-04-01T04:30:55;6.60;1.00
3701;DHT22;1866;48.374;10.766;2023-04-01T04:33:22;6.60;1.00
3701;DHT22;1866;48.374;10.766;2023-04-01T04:35:50;6.60;1.00
3701;DHT22;1866;48.374;10.766;2023-04-01T04:38:18;6.50;1.00
3701;DHT22;1866;48.374;10.766;2023-04-01T04:40:45;6.50;1.00
3701;DHT22;1866;48.374;10.766;2023-04-01T04:43:13;6.50;1.00
3701;DHT22;1866;48.374;10.766;2023-04-01T04:45:40;6.60;1.00
3701;DHT22;1866;48.374;10.766;2023-04-01T04:48:08;6.60;1.00
3701;DHT22;1866;48.374;10.766;2023-04-01T04:50:35;6.70;1.00
3701;DHT22;1866;48.374;10.766;2023-04-01T04:53:02;6.70;1.00
3701;DHT22;1866;48.374;10.766;2023-04-01T04:55:30;6.70;1.00
3701;DHT22;1866;48.374;10.766;2023-04-01T04:57:58;6.70;1.00
3701;DHT22;1866;48.374;10.766;2023-04-01T05:00:25;6.80;1.00
3701;DHT22;1866;48.374;10.766;2023-04-01T05:02:52;6.80;1.00
3701;DHT22;1866;48.374;10.766;2023-04-01T05:05:18;6.80;1.00
3701;DHT22;1866;48.374;10.766;2023-04-01T05:07:45;6.80;1.00
3701;DHT22;1866;48.374;10.766;2023-04-01T05:10:12;6.80;1.00
3701;DHT22;1866;48.374;10.766;2023-04-01T05:12:41;6.90;1.00
3701;DHT22;1866;48.374;10.766;2023-04-01T05:15:08;6.90;1.00
3701;DHT22;1866;48.374;10.766;2023-04-01T05:17:35;6.90;1.00
3701;DHT22;1866;48.374;10.766;2023-04-01T05:20:02;6.90;1.00
3701;DHT22;1866;48.374;10.766;2023-04-01T05:22:29;7.00;1.00
3701;DHT22;1866;48.374;10.766;2023-04-01T05:24:56;7.00;1.00
3701;DHT22;1866;48.374;10.766;2023-04-01T05:27:23;7.00;1.00
3701;DHT22;1866;48.374;10.766;2023-04-01T05:29:53;7.10;1.00
3701;DHT22;1866;48.374;10.766;2023-04-01T05:32:21;7.10;1.00
3701;DHT22;1866;48.374;10.766;2023-04-01T05:34:50;7.00;1.00
3701;DHT22;1866;48.374;10.766;2023-04-01T05:37:18;7.20;1.00
3701;DHT22;1866;48.374;10.766;2023-04-01T05:39:45;7.10;1.00
3701;DHT22;1866;48.374;10.766;2023-04-01T05:42:12;7.10;1.00
3701;DHT22;1866;48.374;10.766;2023-04-01T05:44:39;7.20;1.00
3701;DHT22;1866;48.374;10.766;2023-04-01T05:47:08;7.30;1.00
3701;DHT22;1866;48.374;10.766;2023-04-01T05:49:35;7.60;1.00
3701;DHT22;1866;48.374;10.766;2023-04-01T05:52:02;7.30;1.00
3701;DHT22;1866;48.374;10.766;2023-04-01T05:54:29;7.20;1.00
3701;DHT22;1866;48.374;10.766;2023-04-01T05:56:55;7.60;1.00
3701;DHT22;1866;48.374;10.766;2023-04-01T05:59:22;8.20;1.00
3701;DHT22;1866;48.374;10.766;2023-04-01T06:01:49;8.10;1.00
3701;DHT22;1866;48.374;10.766;2023-04-01T06:04:18;8.20;1.00
3701;DHT22;1866;48.374;10.766;2023-04-01T06:06:45;7.80;1.00
3701;DHT22;1866;48.374;10.766;2023-04-01T06:09:14;7.80;1.00
3701;DHT22;1866;48.374;10.766;2023-04-01T06:11:55;8.50;1.00
3701;DHT22;1866;48.374;10.766;2023-04-01T06:14:32;8.00;1.00
3701;DHT22;1866;48.374;10.766;2023-04-01T06:17:17;7.70;1.00
3701;DHT22;1866;48.374;10.766;2023-04-01T06:19:51;7.70;1.00
3701;DHT22;1866;48.374;10.766;2023-04-01T06:22:51;7.70;1.00
3701;DHT22;1866;48.374;10.766;2023-04-01T06:25:38;7.80;1.00
3701;DHT22;1866;48.374;10.766;2023-04-01T06:28:35;7.80;1.00
3701;DHT22;1866;48.374;10.766;2023-04-01T06:31:10;8.00;1.00
3701;DHT22;1866;48.374;10.766;2023-04-01T06:34:15;8.10;1.00
3701;DHT22;1866;48.374;10.766;2023-04-01T06:36:57;8.00;1.00
3701;DHT22;1866;48.374;10.766;2023-04-01T06:39:45;8.00;1.00
3701;DHT22;1866;48.374;10.766;2023-04-01T06:45:13;8.00;1.00
3701;DHT22;1866;48.374;10.766;2023-04-01T06:47:54;8.20;1.00
3701;DHT22;1866;48.374;10.766;2023-04-01T06:50:28;8.30;1.00
3701;DHT22;1866;48.374;10.766;2023-04-01T06:53:02;8.30;1.00
3701;DHT22;1866;48.374;10.766;2023-04-01T06:55:36;8.30;1.00
3701;DHT22;1866;48.374;10.766;2023-04-01T06:58:12;8.40;1.00
3701;DHT22;1866;48.374;10.766;2023-04-01T07:00:43;8.30;1.00
3701;DHT22;1866;48.374;10.766;2023-04-01T07:03:18;8.60;1.00
3701;DHT22;1866;48.374;10.766;2023-04-01T07:05:46;8.60;1.00
3701;DHT22;1866;48.374;10.766;2023-04-01T07:08:18;8.60;1.00
3701;DHT22;1866;48.374;10.766;2023-04-01T07:10:50;8.50;1.00
3701;DHT22;1866;48.374;10.766;2023-04-01T07:13:21;8.60;1.00
3701;DHT22;1866;48.374;10.766;2023-04-01T07:15:56;8.60;1.00
3701;DHT22;1866;48.374;10.766;2023-04-01T07:18:30;8.60;1.00
3701;DHT22;1866;48.374;10.766;2023-04-01T07:21:00;8.80;1.00
3701;DHT22;1866;48.374;10.766;2023-04-01T07:23:32;9.00;1.00
3701;DHT22;1866;48.374;10.766;2023-04-01T07:26:09;9.10;1.00
3701;DHT22;1866;48.374;10.766;2023-04-01T07:28:37;8.90;1.00
3701;DHT22;1866;48.374;10.766;2023-04-01T07:31:15;8.80;1.00
3701;DHT22;1866;48.374;10.766;2023-04-01T07:33:52;8.70;1.00
3701;DHT22;1866;48.374;10.766;2023-04-01T07:36:26;8.50;1.00
3701;DHT22;1866;48.374;10.766;2023-04-01T07:39:04;8.60;1.00
3701;DHT22;1866;48.374;10.766;2023-04-01T07:41:41;8.70;1.00
3701;DHT22;1866;48.374;10.766;2023-04-01T07:44:17;8.70;1.00
3701;DHT22;1866;48.374;10.766;2023-04-01T07:47:03;8.70;1.00
3701;DHT22;1866;48.374;10.766;2023-04-01T07:49:43;8.60;1.00
3701;DHT22;1866;48.374;10.766;2023-04-01T07:52:21;8.60;1.00
3701;DHT22;1866;48.374;10.766;2023-04-01T07:54:55;8.70;1.00
3701;DHT22;1866;48.374;10.766;2023-04-01T07:57:29;8.70;1.00
3701;DHT22;1866;48.374;10.766;2023-04-01T08:00:00;8.80;1.00
3701;DHT22;1866;48.374;10.766;2023-04-01T08:02:38;8.80;1.00
3701;DHT22;1866;48.374;10.766;2023-04-01T08:05:18;8.80;1.00
3701;DHT22;1866;48.374;10.766;2023-04-01T08:07:51;8.90;1.00
3701;DHT22;1866;48.374;10.766;2023-04-01T08:10:30;8.90;1.00
3701;DHT22;1866;48.374;10.766;2023-04-01T08:13:06;9.00;1.00
3701;DHT22;1866;48.374;10.766;2023-04-01T08:15:38;9.30;1.00
3701;DHT22;1866;48.374;10.766;2023-04-01T08:18:17;9.50;1.00
3701;DHT22;1866;48.374;10.766;2023-04-01T08:20:50;9.40;1.00
3701;DHT22;1866;48.374;10.766;2023-04-01T08:23:21;9.50;1.00
3701;DHT22;1866;48.374;10.766;2023-04-01T08:25:52;9.70;1.00
3701;DHT22;1866;48.374;10.766;2023-04-01T08:28:25;9.70;1.00
3701;DHT22;1866;48.374;10.766;2023-04-01T08:30:57;10.10;1.00
3701;DHT22;1866;48.374;10.766;2023-04-01T08:33:27;10.10;1.00
3701;DHT22;1866;48.374;10.766;2023-04-01T08:35:59;10.00;1.00
3701;DHT22;1866;48.374;10.766;2023-04-01T08:38:31;10.10;1.00
3701;DHT22;1866;48.374;10.766;2023-04-01T08:41:36;10.10;1.00
3701;DHT22;1866;48.374;10.766;2023-04-01T08:44:30;10.00;1.00
3701;DHT22;1866;48.374;10.766;2023-04-01T08:50:01;9.80;1.00
3701;DHT22;1866;48.374;10.766;2023-04-01T08:52:36;9.80;1.00
3701;DHT22;1866;48.374;10.766;2023-04-01T08:55:31;9.80;1.00
3701;DHT22;1866;48.374;10.766;2023-04-01T09:00:46;9.70;1.00
3701;DHT22;1866;48.374;10.766;2023-04-01T09:06:35;9.80;1.00
3701;DHT22;1866;48.374;10.766;2023-04-01T09:12:19;10.10;1.00
3701;DHT22;1866;48.374;10.766;2023-04-01T09:14:54;10.10;1.00
3701;DHT22;1866;48.374;10.766;2023-04-01T09:17:51;10.10;1.00
3701;DHT22;1866;48.374;10.766;2023-04-01T09:20:33;10.10;1.00
3701;DHT22;1866;48.374;10.766;2023-04-01T09:23:31;10.00;1.00
3701;DHT22;1866;48.374;10.766;2023-04-01T09:26:13;10.00;1.00
3701;DHT22;1866;48.374;10.766;2023-04-01T09:28:51;10.20;1.00
3701;DHT22;1866;48.374;10.766;2023-04-01T09:31:32;10.40;1.00
3701;DHT22;1866;48.374;10.766;2023-04-01T09:34:26;10.60;1.00
3701;DHT22;1866;48.374;10.766;2023-04-01T09:37:15;10.50;1.00
3701;DHT22;1866;48.374;10.766;2023-04-01T09:39:51;10.30;1.00
3701;DHT22;1866;48.374;10.766;2023-04-01T09:42:42;10.30;1.00
3701;DHT22;1866;48.374;10.766;2023-04-01T09:45:22;10.40;1.00
3701;DHT22;1866;48.374;10.766;2023-04-01T09:48:04;10.50;1.00
3701;DHT22;1866;48.374;10.766;2023-04-01T09:50:45;10.20;1.00
3701;DHT22;1866;48.374;10.766;2023-04-01T09:53:26;10.30;1.00
3701;DHT22;1866;48.374;10.766;2023-04-01T09:59:29;10.20;1.00
3701;DHT22;1866;48.374;10.766;2023-04-01T10:02:17;10.20;1.00
3701;DHT22;1866;48.374;10.766;2023-04-01T10:05:04;10.10;1.00
3701;DHT22;1866;48.374;10.766;2023-04-01T10:11:22;9.80;1.00
3701;DHT22;1866;48.374;10.766;2023-04-01T10:14:27;9.50;1.00
3701;DHT22;1866;48.374;10.766;2023-04-01T10:20:30;9.40;1.00
3701;DHT22;1866;48.374;10.766;2023-04-01T10:29:39;9.10;1.00
3701;DHT22;1866;48.374;10.766;2023-04-01T10:35:51;9.00;1.00
3701;DHT22;1866;48.374;10.766;2023-04-01T10:38:56;9.00;1.00
3701;DHT22;1866;48.374;10.766;2023-04-01T10:44:53;8.90;1.00
3701;DHT22;1866;48.374;10.766;2023-04-01T10:54:18;8.50;1.00
3701;DHT22;1866;48.374;10.766;2023-04-01T10:56:53;8.40;1.00
3701;DHT22;1866;48.374;10.766;2023-04-01T11:00:14;8.50;1.00
3701;DHT22;1866;48.374;10.766;2023-04-01T11:03:22;8.50;1.00
3701;DHT22;1866;48.374;10.766;2023-04-01T11:09:30;8.40;1.00
3701;DHT22;1866;48.374;10.766;2023-04-01T11:16:03;8.20;1.00
3701;DHT22;1866;48.374;10.766;2023-04-01T11:19:01;8.20;1.00
3701;DHT22;1866;48.374;10.766;2023-04-01T11:22:13;8.10;1.00
3701;DHT22;1866;48.374;10.766;2023-04-01T11:30:52;8.10;1.00
3701;DHT22;1866;48.374;10.766;2023-04-01T11:33:26;8.10;1.00
3701;DHT22;1866;48.374;10.766;2023-04-01T11:36:08;8.20;1.00
3701;DHT22;1866;48.374;10.766;2023-04-01T11:39:11;8.30;1.00
3701;DHT22;1866;48.374;10.766;2023-04-01T11:41:45;8.40;1.00
3701;DHT22;1866;48.374;10.766;2023-04-01T11:44:19;8.30;1.00
3701;DHT22;1866;48.374;10.766;2023-04-01T11:47:00;8.40;1.00
3701;DHT22;1866;48.374;10.766;2023-04-01T11:49:41;8.40;1.00
3701;DHT22;1866;48.374;10.766;2023-04-01T11:52:21;8.40;1.00
3701;DHT22;1866;48.374;10.766;2023-04-01T11:55:05;8.50;1.00
3701;DHT22;1866;48.374;10.766;2023-04-01T11:57:46;8.50;1.00
3701;DHT22;1866;48.374;10.766;2023-04-01T12:00:40;8.40;1.00
3701;DHT22;1866;48.374;10.766;2023-04-01T12:03:33;8.50;1.00
3701;DHT22;1866;48.374;10.766;2023-04-01T12:06:09;8.50;1.00
3701;DHT22;1866;48.374;10.766;2023-04-01T12:08:46;8.50;1.00
3701;DHT22;1866;48.374;10.766;2023-04-01T12:11:17;8.40;1.00
3701;DHT22;1866;48.374;10.766;2023-04-01T12:13:51;8.60;1.00
3701;DHT22;1866;48.374;10.766;2023-04-01T12:16:37;8.50;1.00
3701;DHT22;1866;48.374;10.766;2023-04-01T12:19:17;8.40;1.00
3701;DHT22;1866;48.374;10.766;2023-04-01T12:21:55;8.60;1.00
3701;DHT22;1866;48.374;10.766;2023-04-01T12:24:39;8.50;1.00
3701;DHT22;1866;48.374;10.766;2023-04-01T12:27:23;8.50;1.00
3701;DHT22;1866;48.374;10.766;2023-04-01T12:30:23;8.60;1.00
3701;DHT22;1866;48.374;10.766;2023-04-01T12:33:11;8.50;1.00
3701;DHT22;1866;48.374;10.766;2023-04-01T12:35:55;8.40;1.00
3701;DHT22;1866;48.374;10.766;2023-04-01T12:38:31;8.50;1.00
3701;DHT22;1866;48.374;10.766;2023-04-01T12:41:17;8.30;1.00
3701;DHT22;1866;48.374;10.766;2023-04-01T12:44:19;8.50;1.00
3701;DHT22;1866;48.374;10.766;2023-04-01T12:47:04;8.30;1.00
3701;DHT22;1866;48.374;10.766;2023-04-01T12:49:48;8.50;1.00
3701;DHT22;1866;48.374;10.766;2023-04-01T12:52:26;8.90;1.00
3701;DHT22;1866;48.374;10.766;2023-04-01T12:55:18;8.90;1.00
3701;DHT22;1866;48.374;10.766;2023-04-01T13:01:04;8.80;11.40
3701;DHT22;1866;48.374;10.766;2023-04-01T13:03:51;8.80;9.60
3701;DHT22;1866;48.374;10.766;2023-04-01T13:06:46;8.90;23.00
3701;DHT22;1866;48.374;10.766;2023-04-01T13:09:28;8.90;15.50
3701;DHT22;1866;48.374;10.766;2023-04-01T13:12:10;8.90;15.40
3701;DHT22;1866;48.374;10.766;2023-04-01T13:15:07;8.80;1.00
3701;DHT22;1866;48.374;10.766;2023-04-01T13:17:40;8.80;1.00
3701;DHT22;1866;48.374;10.766;2023-04-01T13:20:16;8.80;4.00
3701;DHT22;1866;48.374;10.766;2023-04-01T13:22:56;8.70;1.00
3701;DHT22;1866;48.374;10.766;2023-04-01T13:25:32;8.80;1.00
3701;DHT22;1866;48.374;10.766;2023-04-01T13:28:11;8.80;1.00
3701;DHT22;1866;48.374;10.766;2023-04-01T13:30:43;8.90;1.00
3701;DHT22;1866;48.374;10.766;2023-04-01T13:33:17;8.90;1.00
3701;DHT22;1866;48.374;10.766;2023-04-01T13:35:50;9.00;1.00
3701;DHT22;1866;48.374;10.766;2023-04-01T13:38:41;9.10;1.00
3701;DHT22;1866;48.374;10.766;2023-04-01T13:41:22;9.20;1.00
3701;DHT22;1866;48.374;10.766;2023-04-01T13:43:57;9.20;1.00
3701;DHT22;1866;48.374;10.766;2023-04-01T13:46:51;9.10;1.00
3701;DHT22;1866;48.374;10.766;2023-04-01T13:49:54;9.10;1.00
3701;DHT22;1866;48.374;10.766;2023-04-01T13:52:40;9.20;1.00
3701;DHT22;1866;48.374;10.766;2023-04-01T13:58:19;9.30;1.00
3701;DHT22;1866;48.374;10.766;2023-04-01T14:00:55;9.50;1.00
3701;DHT22;1866;48.374;10.766;2023-04-01T14:03:50;9.60;1.00
3701;DHT22;1866;48.374;10.766;2023-04-01T14:06:31;9.50;1.00
3701;DHT22;1866;48.374;10.766;2023-04-01T14:09:26;9.60;1.00
3701;DHT22;1866;48.374;10.766;2023-04-01T14:12:02;9.40;1.00
3701;DHT22;1866;48.374;10.766;2023-04-01T14:14:41;9.40;1.00
3701;DHT22;1866;48.374;10.766;2023-04-01T14:17:29;9.40;1.00
3701;DHT22;1866;48.374;10.766;2023-04-01T14:20:22;9.50;1.00
3701;DHT22;1866;48.374;10.766;2023-04-01T14:23:02;9.30;1.00
3701;DHT22;1866;48.374;10.766;2023-04-01T14:25:50;9.30;1.00
3701;DHT22;1866;48.374;10.766;2023-04-01T14:28:28;9.20;1.00
3701;DHT22;1866;48.374;10.766;2023-04-01T14:31:18;9.10;1.00
3701;DHT22;1866;48.374;10.766;2023-04-01T14:34:00;9.20;1.00
3701;DHT22;1866;48.374;10.766;2023-04-01T14:36:55;9.50;1.00
3701;DHT22;1866;48.374;10.766;2023-04-01T14:39:47;9.50;1.00
3701;DHT22;1866;48.374;10.766;2023-04-01T14:42:31;9.50;1.00
3701;DHT22;1866;48.374;10.766;2023-04-01T14:45:23;9.40;1.00
3701;DHT22;1866;48.374;10.766;2023-04-01T14:47:53;9.30;1.00
3701;DHT22;1866;48.374;10.766;2023-04-01T14:50:23;9.40;1.00
3701;DHT22;1866;48.374;10.766;2023-04-01T14:52:58;9.80;1.00
3701;DHT22;1866;48.374;10.766;2023-04-01T14:55:31;10.00;1.00
3701;DHT22;1866;48.374;10.766;2023-04-01T14:58:04;10.10;1.00
3701;DHT22;1866;48.374;10.766;2023-04-01T15:00:46;10.30;1.00
3701;DHT22;1866;48.374;10.766;2023-04-01T15:03:20;10.00;1.00
3701;DHT22;1866;48.374;10.766;2023-04-01T15:05:54;9.90;1.00
3701;DHT22;1866;48.374;10.766;2023-04-01T15:08:24;9.90;1.00
3701;DHT22;1866;48.374;10.766;2023-04-01T15:11:18;9.90;1.00
3701;DHT22;1866;48.374;10.766;2023-04-01T15:14:18;9.80;1.00
3701;DHT22;1866;48.374;10.766;2023-04-01T15:16:58;9.80;1.00
3701;DHT22;1866;48.374;10.766;2023-04-01T15:19:39;9.90;1.00
3701;DHT22;1866;48.374;10.766;2023-04-01T15:22:33;9.90;1.00
3701;DHT22;1866;48.374;10.766;2023-04-01T15:25:19;9.90;1.00
3701;DHT22;1866;48.374;10.766;2023-04-01T15:27:53;9.90;1.00
3701;DHT22;1866;48.374;10.766;2023-04-01T15:30:32;9.80;1.00
3701;DHT22;1866;48.374;10.766;2023-04-01T15:33:11;9.70;1.00
3701;DHT22;1866;48.374;10.766;2023-04-01T15:35:48;9.80;1.00
3701;DHT22;1866;48.374;10.766;2023-04-01T15:38:24;9.70;1.00
3701;DHT22;1866;48.374;10.766;2023-04-01T15:40:57;9.60;1.00
3701;DHT22;1866;48.374;10.766;2023-04-01T15:43:32;9.70;1.00
3701;DHT22;1866;48.374;10.766;2023-04-01T15:46:19;9.60;1.00
3701;DHT22;1866;48.374;10.766;2023-04-01T15:48:57;9.70;1.00
3701;DHT22;1866;48.374;10.766;2023-04-01T15:52:08;9.70;1.00
3701;DHT22;1866;48.374;10.766;2023-04-01T15:54:57;9.90;1.00
3701;DHT22;1866;48.374;10.766;2023-04-01T15:57:34;9.80;1.00
3701;DHT22;1866;48.374;10.766;2023-04-01T16:00:23;9.70;1.00
3701;DHT22;1866;48.374;10.766;2023-04-01T16:05:49;9.70;1.00
3701;DHT22;1866;48.374;10.766;2023-04-01T16:08:41;9.60;1.00
3701;DHT22;1866;48.374;10.766;2023-04-01T16:11:18;9.60;1.00
3701;DHT22;1866;48.374;10.766;2023-04-01T16:13:58;9.50;1.00
3701;DHT22;1866;48.374;10.766;2023-04-01T16:16:38;9.50;1.00
3701;DHT22;1866;48.374;10.766;2023-04-01T16:22:08;9.40;1.00
3701;DHT22;1866;48.374;10.766;2023-04-01T16:24:44;9.40;1.00
3701;DHT22;1866;48.374;10.766;2023-04-01T16:27:15;9.40;1.00
3701;DHT22;1866;48.374;10.766;2023-04-01T16:29:48;9.30;1.00
3701;DHT22;1866;48.374;10.766;2023-04-01T16:32:29;9.40;1.00
3701;DHT22;1866;48.374;10.766;2023-04-01T16:35:12;9.40;1.00
3701;DHT22;1866;48.374;10.766;2023-04-01T16:37:46;9.30;1.00
3701;DHT22;1866;48.374;10.766;2023-04-01T16:40:25;9.30;1.00
3701;DHT22;1866;48.374;10.766;2023-04-01T16:43:06;9.30;1.00
3701;DHT22;1866;48.374;10.766;2023-04-01T16:45:40;9.20;1.00
3701;DHT22;1866;48.374;10.766;2023-04-01T16:48:12;9.20;1.00
3701;DHT22;1866;48.374;10.766;2023-04-01T16:50:51;9.20;1.00
3701;DHT22;1866;48.374;10.766;2023-04-01T16:53:30;9.10;1.00
3701;DHT22;1866;48.374;10.766;2023-04-01T16:56:10;9.10;1.00
3701;DHT22;1866;48.374;10.766;2023-04-01T16:58:41;9.10;1.00
3701;DHT22;1866;48.374;10.766;2023-04-01T17:01:12;9.10;1.00
3701;DHT22;1866;48.374;10.766;2023-04-01T17:03:43;9.00;1.00
3701;DHT22;1866;48.374;10.766;2023-04-01T17:06:25;9.00;1.00
3701;DHT22;1866;48.374;10.766;2023-04-01T17:09:11;9.00;1.00
3701;DHT22;1866;48.374;10.766;2023-04-01T17:11:46;9.00;1.00
3701;DHT22;1866;48.374;10.766;2023-04-01T17:14:20;8.90;1.00
3701;DHT22;1866;48.374;10.766;2023-04-01T17:17:01;8.90;1.00
3701;DHT22;1866;48.374;10.766;2023-04-01T17:19:42;8.90;1.00
3701;DHT22;1866;48.374;10.766;2023-04-01T17:22:22;8.80;1.00
3701;DHT22;1866;48.374;10.766;2023-04-01T17:25:02;8.80;1.00
3701;DHT22;1866;48.374;10.766;2023-04-01T17:27:43;8.80;1.00
3701;DHT22;1866;48.374;10.766;2023-04-01T17:30:23;8.80;1.00
3701;DHT22;1866;48.374;10.766;2023-04-01T17:33:22;8.80;1.00
3701;DHT22;1866;48.374;10.766;2023-04-01T17:35:58;8.80;1.00
3701;DHT22;1866;48.374;10.766;2023-04-01T17:38:40;8.70;1.00
3701;DHT22;1866;48.374;10.766;2023-04-01T17:41:20;8.80;1.00
3701;DHT22;1866;48.374;10.766;2023-04-01T17:44:01;8.70;1.00
3701;DHT22;1866;48.374;10.766;2023-04-01T17:46:36;8.70;1.00
3701;DHT22;1866;48.374;10.766;2023-04-01T17:49:21;8.70;1.00
3701;DHT22;1866;48.374;10.766;2023-04-01T17:51:55;8.60;1.00
3701;DHT22;1866;48.374;10.766;2023-04-01T17:54:31;8.60;1.00
3701;DHT22;1866;48.374;10.766;2023-04-01T17:57:13;8.60;1.00
3701;DHT22;1866;48.374;10.766;2023-04-01T17:59:56;8.50;1.00
3701;DHT22;1866;48.374;10.766;2023-04-01T18:02:32;8.50;1.00
3701;DHT22;1866;48.374;10.766;2023-04-01T18:05:35;8.50;1.00
3701;DHT22;1866;48.374;10.766;2023-04-01T18:08:19;8.40;1.00
3701;DHT22;1866;48.374;10.766;2023-04-01T18:10:57;8.40;1.00
3701;DHT22;1866;48.374;10.766;2023-04-01T18:13:51;8.30;1.00
3701;DHT22;1866;48.374;10.766;2023-04-01T18:16:40;8.30;1.00
3701;DHT22;1866;48.374;10.766;2023-04-01T18:19:18;8.30;1.00
3701;DHT22;1866;48.374;10.766;2023-04-01T18:21:52;8.30;1.00
3701;DHT22;1866;48.374;10.766;2023-04-01T18:24:26;8.20;1.00
3701;DHT22;1866;48.374;10.766;2023-04-01T18:27:03;8.30;1.00
3701;DHT22;1866;48.374;10.766;2023-04-01T18:29:39;8.30;1.00
3701;DHT22;1866;48.374;10.766;2023-04-01T18:32:17;8.40;1.00
3701;DHT22;1866;48.374;10.766;2023-04-01T18:34:54;8.40;1.00